Time;durP1;ratioP1;P1;durP2;ratioP2;P2;SDS_P1;SDS_P2;PMS_P1;PMS_P2;Temp;Humidity;BMP_temperature;BMP_pressure;BME280_temperature;BME280_humidity;BME280_pressure;Samples;Min_cycle;Max_cycle;Signal;HPM_P1;HPM_P2
2020/12/08 00:01:44;;;;;;;97.35;35.03;;;1.60;99.90;;;;;;4178342;28;20035;-80
2020/12/08 00:03:45;;;;;;;98.27;38.80;;;1.60;99.90;;;;;;4196063;28;20024;-81
2020/12/08 00:05:46;;;;;;;84.68;34.38;;;1.60;99.90;;;;;;4196319;28;20263;-80
2020/12/08 00:07:47;;;;;;;108.40;35.17;;;1.60;99.90;;;;;;4196009;28;20032;-80
2020/12/08 00:09:48;;;;;;;83.95;33.08;;;1.60;99.90;;;;;;4196220;28;20020;-81
2020/12/08 00:11:48;;;;;;;89.07;35.13;;;1.50;99.90;;;;;;4196220;28;20445;-80
2020/12/08 00:13:49;;;;;;;99.70;34.33;;;1.50;99.90;;;;;;4196221;28;20052;-80
2020/12/08 00:15:50;;;;;;;91.60;33.20;;;1.50;99.90;;;;;;4196198;28;20543;-80
2020/12/08 00:17:51;;;;;;;85.93;33.53;;;1.50;99.90;;;;;;4196255;28;20086;-80
2020/12/08 00:19:54;;;;;;;83.18;33.85;;;1.50;99.90;;;;;;4178346;28;20408;-80
2020/12/08 00:21:55;;;;;;;90.88;34.13;;;1.50;99.90;;;;;;4178270;28;20025;-80
2020/12/08 00:23:55;;;;;;;97.47;34.78;;;1.50;99.90;;;;;;4196023;28;20361;-81
2020/12/08 00:25:56;;;;;;;92.55;35.33;;;1.60;99.90;;;;;;4178247;28;20025;-80
2020/12/08 00:27:57;;;;;;;94.15;34.05;;;1.60;99.90;;;;;;4200879;28;20032;-81
2020/12/08 00:29:57;;;;;;;85.93;34.03;;;1.60;99.90;;;;;;4196038;28;20040;-80
2020/12/08 00:31:58;;;;;;;81.03;32.75;;;1.60;99.90;;;;;;4177969;28;20033;-81
2020/12/08 00:33:59;;;;;;;101.35;35.53;;;1.70;99.90;;;;;;4191650;28;20032;-80
2020/12/08 00:36:02;;;;;;;87.88;36.05;;;1.70;99.90;;;;;;4196190;28;20154;-80
2020/12/08 00:38:03;;;;;;;85.45;34.83;;;1.70;99.90;;;;;;4183695;28;20107;-79
2020/12/08 00:40:04;;;;;;;87.43;33.22;;;1.80;99.90;;;;;;4185593;28;20095;-80
2020/12/08 00:42:06;;;;;;;87.85;32.75;;;1.80;99.90;;;;;;4202089;28;20123;-80
2020/12/08 00:44:08;;;;;;;93.38;34.38;;;1.80;99.90;;;;;;4191069;28;20048;-81
2020/12/08 00:46:12;;;;;;;88.28;33.13;;;1.80;99.90;;;;;;4196792;28;20502;-80
2020/12/08 00:48:13;;;;;;;93.05;36.45;;;1.80;99.90;;;;;;4196101;28;20025;-80
2020/12/08 00:50:14;;;;;;;89.63;34.50;;;1.90;99.90;;;;;;4195885;28;20112;-81
2020/12/08 00:52:14;;;;;;;86.72;32.72;;;1.90;99.90;;;;;;4179884;28;20152;-80
2020/12/08 00:54:15;;;;;;;86.63;33.17;;;1.90;99.90;;;;;;4193565;28;20032;-80
2020/12/08 00:56:15;;;;;;;79.60;32.28;;;2.00;99.90;;;;;;4190195;28;20510;-80
2020/12/08 00:58:16;;;;;;;91.50;34.70;;;2.00;99.90;;;;;;4179448;28;20428;-81
2020/12/08 01:00:17;;;;;;;104.10;36.53;;;2.00;99.90;;;;;;4189920;28;20035;-81
2020/12/08 01:02:18;;;;;;;88.88;34.35;;;2.00;99.90;;;;;;4188637;28;20369;-81
2020/12/08 01:04:18;;;;;;;94.57;35.08;;;2.00;99.90;;;;;;4190536;28;20158;-80
2020/12/08 01:06:19;;;;;;;90.30;32.38;;;2.10;99.90;;;;;;4183311;28;20033;-81
2020/12/08 01:08:19;;;;;;;83.13;32.60;;;2.10;99.90;;;;;;4195217;28;20181;-80
2020/12/08 01:10:20;;;;;;;80.03;34.17;;;2.10;99.90;;;;;;4192465;28;20040;-80
2020/12/08 01:12:20;;;;;;;80.80;33.38;;;2.20;99.90;;;;;;4181399;28;20041;-80
2020/12/08 01:14:21;;;;;;;76.55;31.73;;;2.20;99.90;;;;;;4190295;28;20454;-81
2020/12/08 01:16:25;;;;;;;90.22;34.60;;;2.20;99.90;;;;;;4195836;28;20153;-81
2020/12/08 01:18:25;;;;;;;80.10;35.78;;;2.20;99.90;;;;;;4183201;28;20036;-80
2020/12/08 01:20:26;;;;;;;84.03;36.33;;;2.20;99.90;;;;;;4193471;28;20349;-81
2020/12/08 01:22:26;;;;;;;89.10;35.50;;;2.20;99.90;;;;;;4180464;28;20048;-81
2020/12/08 01:24:27;;;;;;;80.82;33.70;;;2.20;99.90;;;;;;4180833;28;20432;-81
2020/12/08 01:26:28;;;;;;;88.80;34.58;;;2.20;99.90;;;;;;4190785;28;20028;-81
2020/12/08 01:28:28;;;;;;;89.53;35.40;;;2.20;99.90;;;;;;4186225;28;20035;-81
2020/12/08 01:30:29;;;;;;;78.32;32.72;;;2.20;99.90;;;;;;4194071;28;20033;-80
2020/12/08 01:32:30;;;;;;;80.03;34.15;;;2.30;99.90;;;;;;4198584;28;20036;-80
2020/12/08 01:34:30;;;;;;;86.10;33.10;;;2.30;99.90;;;;;;4198462;28;20031;-80
2020/12/08 01:36:31;;;;;;;84.68;34.63;;;2.30;99.90;;;;;;4198231;28;20021;-81
2020/12/08 01:38:32;;;;;;;91.53;37.63;;;2.30;99.90;;;;;;4192647;28;20082;-80
2020/12/08 01:40:32;;;;;;;86.95;35.00;;;2.30;99.90;;;;;;4196972;28;20078;-80
2020/12/08 01:42:33;;;;;;;94.72;36.58;;;2.30;99.90;;;;;;4184277;28;20057;-81
2020/12/08 01:44:33;;;;;;;90.15;34.88;;;2.30;99.90;;;;;;4182921;28;20044;-81
2020/12/08 01:46:35;;;;;;;87.53;33.97;;;2.30;99.90;;;;;;4197185;28;20028;-81
2020/12/08 01:48:37;;;;;;;80.85;34.15;;;2.30;99.90;;;;;;4198054;28;20028;-81
2020/12/08 01:50:38;;;;;;;88.55;34.45;;;2.30;99.90;;;;;;4196826;28;20116;-81
2020/12/08 01:52:38;;;;;;;90.43;36.72;;;2.30;99.90;;;;;;4185122;28;20022;-81
2020/12/08 01:54:40;;;;;;;85.50;37.00;;;2.30;99.90;;;;;;4181488;28;20082;-81
2020/12/08 01:56:41;;;;;;;81.60;33.65;;;2.30;99.90;;;;;;4181519;28;20040;-80
2020/12/08 01:58:41;;;;;;;75.03;33.42;;;2.20;99.90;;;;;;4185723;28;20480;-81
2020/12/08 02:00:42;;;;;;;86.07;33.50;;;2.20;99.90;;;;;;4181411;28;20063;-81
2020/12/08 02:02:44;;;;;;;85.28;33.53;;;2.20;99.90;;;;;;4191546;28;20024;-81
2020/12/08 02:04:45;;;;;;;82.88;32.83;;;2.20;99.90;;;;;;4181234;28;20032;-81
2020/12/08 02:06:45;;;;;;;77.80;31.13;;;2.10;99.90;;;;;;4179875;28;20029;-81
2020/12/08 02:08:46;;;;;;;92.18;32.22;;;2.00;99.90;;;;;;4181123;28;20036;-82
2020/12/08 02:10:47;;;;;;;76.68;30.33;;;2.00;99.90;;;;;;4181063;28;20373;-81
2020/12/08 02:12:47;;;;;;;75.25;31.83;;;1.90;99.90;;;;;;4180119;28;20029;-81
2020/12/08 02:14:48;;;;;;;82.72;30.10;;;1.80;99.90;;;;;;4181301;28;20500;-81
2020/12/08 02:16:49;;;;;;;80.95;30.88;;;1.70;99.90;;;;;;4194502;28;20055;-81
2020/12/08 02:18:49;;;;;;;91.10;32.25;;;1.70;99.90;;;;;;4194454;28;20021;-81
2020/12/08 02:21:01;;;;;;;83.18;31.98;;;1.60;99.90;;;;;;4180915;28;20029;-81
2020/12/08 02:23:02;;;;;;;88.40;29.13;;;1.60;99.90;;;;;;4195649;28;20520;-80
2020/12/08 02:25:04;;;;;;;77.90;30.92;;;1.40;99.90;;;;;;4195839;28;20021;-80
2020/12/08 02:27:04;;;;;;;73.97;28.90;;;1.40;99.90;;;;;;4191803;28;20021;-80
2020/12/08 02:29:05;;;;;;;80.72;29.00;;;1.30;99.90;;;;;;4209031;28;20056;-80
2020/12/08 02:31:06;;;;;;;88.10;30.58;;;1.20;99.90;;;;;;4195334;28;20025;-80
2020/12/08 02:33:06;;;;;;;77.90;29.75;;;1.10;99.90;;;;;;4195917;28;20020;-80
2020/12/08 02:35:07;;;;;;;80.13;29.83;;;1.00;99.90;;;;;;4195724;28;20052;-80
2020/12/08 02:37:08;;;;;;;74.25;27.60;;;1.00;99.90;;;;;;4181222;28;20518;-80
2020/12/08 02:39:08;;;;;;;77.15;28.73;;;0.90;99.90;;;;;;4198068;28;20090;-80
2020/12/08 02:41:09;;;;;;;80.55;28.40;;;0.80;99.90;;;;;;4177597;28;20487;-80
2020/12/08 02:43:10;;;;;;;77.55;26.80;;;0.70;99.90;;;;;;4195566;28;20028;-81
2020/12/08 02:45:11;;;;;;;80.22;27.40;;;0.60;99.90;;;;;;4196853;28;20499;-81
2020/12/08 02:47:12;;;;;;;88.95;28.15;;;0.50;99.90;;;;;;4197039;28;20021;-81
2020/12/08 02:49:12;;;;;;;67.47;26.88;;;0.50;99.90;;;;;;4196798;28;20023;-81
2020/12/08 02:51:17;;;;;;;61.88;26.05;;;0.40;99.90;;;;;;4196689;28;20422;-80
2020/12/08 02:53:18;;;;;;;60.45;25.20;;;0.30;99.90;;;;;;4178896;28;20029;-81
2020/12/08 02:55:20;;;;;;;78.38;29.35;;;0.20;99.90;;;;;;4204247;28;20544;-80
2020/12/08 02:57:21;;;;;;;64.82;25.75;;;0.20;99.90;;;;;;4209410;28;20043;-81
2020/12/08 02:59:22;;;;;;;68.50;26.52;;;0.10;99.90;;;;;;4179078;28;20387;-81
2020/12/08 03:01:23;;;;;;;82.05;28.00;;;0.10;99.90;;;;;;4196623;28;20372;-81
2020/12/08 03:03:23;;;;;;;64.28;25.83;;;0.10;99.90;;;;;;4178760;28;20032;-81
2020/12/08 03:05:24;;;;;;;74.32;27.15;;;0.10;99.90;;;;;;4196770;28;20035;-81
2020/12/08 03:07:24;;;;;;;80.82;26.83;;;0.00;99.90;;;;;;4196738;28;20036;-81
2020/12/08 03:09:25;;;;;;;76.80;29.40;;;0.00;99.90;;;;;;4178838;28;20059;-80
2020/12/08 03:11:32;;;;;;;75.43;27.92;;;0.00;99.90;;;;;;4192936;28;20120;-80
2020/12/08 03:13:32;;;;;;;62.90;26.52;;;0.00;99.90;;;;;;4210302;28;20025;-80
2020/12/08 03:15:33;;;;;;;79.32;27.65;;;-0.10;99.90;;;;;;4183927;28;20742;-81
2020/12/08 03:17:34;;;;;;;67.28;27.42;;;0.00;99.90;;;;;;4204804;28;20032;-81
2020/12/08 03:19:35;;;;;;;77.90;26.75;;;-0.10;99.90;;;;;;4196954;28;20032;-80
2020/12/08 03:21:36;;;;;;;74.22;27.58;;;-0.10;99.90;;;;;;4196651;28;20025;-80
2020/12/08 03:23:37;;;;;;;75.05;25.52;;;-0.10;99.90;;;;;;4178502;28;20028;-80
2020/12/08 03:25:38;;;;;;;91.13;28.48;;;-0.20;99.90;;;;;;4196841;28;20029;-80
2020/12/08 03:27:38;;;;;;;80.78;28.20;;;-0.20;99.90;;;;;;4198825;28;20036;-81
2020/12/08 03:29:39;;;;;;;88.05;29.17;;;-0.30;99.90;;;;;;4207707;28;20475;-80
2020/12/08 03:31:40;;;;;;;61.78;24.88;;;-0.30;99.90;;;;;;4178423;28;20192;-81
2020/12/08 03:33:41;;;;;;;66.15;27.77;;;-0.30;99.90;;;;;;4189584;28;20036;-81
2020/12/08 03:35:42;;;;;;;70.85;26.75;;;-0.40;99.90;;;;;;4199590;28;20020;-80
2020/12/08 03:37:42;;;;;;;74.63;27.33;;;-0.50;99.90;;;;;;4205939;28;20470;-80
2020/12/08 03:39:43;;;;;;;72.70;25.52;;;-0.50;99.90;;;;;;4194982;28;20036;-80
2020/12/08 03:41:44;;;;;;;74.82;27.15;;;-0.50;99.90;;;;;;4194698;28;20065;-80
2020/12/08 03:43:44;;;;;;;78.78;28.13;;;-0.60;99.90;;;;;;4195058;28;20032;-80
2020/12/08 03:45:45;;;;;;;81.95;29.23;;;-0.50;99.90;;;;;;4194987;28;20078;-80
2020/12/08 03:47:46;;;;;;;80.60;27.83;;;-0.50;99.90;;;;;;4198019;28;20025;-80
2020/12/08 03:49:46;;;;;;;72.68;27.65;;;-0.50;99.90;;;;;;4193177;28;20033;-80
2020/12/08 03:51:47;;;;;;;69.05;28.58;;;-0.50;99.90;;;;;;4196255;28;20028;-80
2020/12/08 03:53:48;;;;;;;74.00;27.75;;;-0.50;99.90;;;;;;4196048;28;20082;-80
2020/12/08 03:55:49;;;;;;;64.78;27.13;;;-0.40;99.90;;;;;;4195200;28;20033;-80
2020/12/08 03:57:50;;;;;;;70.72;29.65;;;-0.40;99.90;;;;;;4190931;28;20028;-80
2020/12/08 03:59:50;;;;;;;84.03;29.17;;;-0.40;99.90;;;;;;4205317;28;20475;-80
2020/12/08 04:01:52;;;;;;;84.78;31.88;;;-0.50;99.90;;;;;;4183731;28;20361;-80
2020/12/08 04:03:52;;;;;;;83.97;31.85;;;-0.50;99.90;;;;;;4193793;28;20024;-80
2020/12/08 04:05:58;;;;;;;76.97;28.10;;;-0.50;99.90;;;;;;4194879;28;20139;-80
2020/12/08 04:07:58;;;;;;;90.82;32.58;;;-0.50;99.90;;;;;;4189088;28;20025;-80
2020/12/08 04:09:59;;;;;;;92.30;31.83;;;-0.50;99.90;;;;;;4188188;28;20102;-80
2020/12/08 04:11:59;;;;;;;84.80;30.85;;;-0.50;99.90;;;;;;4194578;28;20032;-80
2020/12/08 04:14:01;;;;;;;92.03;32.47;;;-0.50;99.90;;;;;;4194871;28;20020;-80
2020/12/08 04:16:02;;;;;;;95.63;33.45;;;-0.40;99.90;;;;;;4194715;28;20494;-79
2020/12/08 04:18:03;;;;;;;84.05;33.20;;;-0.40;99.90;;;;;;4195956;28;20107;-80
2020/12/08 04:20:04;;;;;;;96.40;34.17;;;-0.40;99.90;;;;;;4194934;28;20028;-80
2020/12/08 04:22:04;;;;;;;84.13;31.23;;;-0.30;99.90;;;;;;4194533;28;20066;-80
2020/12/08 04:24:05;;;;;;;84.13;33.35;;;-0.40;99.90;;;;;;4196291;28;20024;-80
2020/12/08 04:26:10;;;;;;;96.05;34.05;;;-0.30;99.90;;;;;;4194691;28;20121;-80
2020/12/08 04:28:11;;;;;;;100.38;31.77;;;-0.30;99.90;;;;;;4192679;28;20025;-80
2020/12/08 04:30:11;;;;;;;71.40;29.00;;;-0.40;99.90;;;;;;4182957;28;20017;-80
2020/12/08 04:32:12;;;;;;;88.13;32.05;;;-0.50;99.90;;;;;;4208070;28;20028;-80
2020/12/08 04:34:13;;;;;;;79.82;31.75;;;-0.60;99.90;;;;;;4199391;28;20020;-80
2020/12/08 04:36:15;;;;;;;94.20;36.28;;;-0.50;99.90;;;;;;4214602;28;20024;-80
2020/12/08 04:38:16;;;;;;;113.28;37.60;;;-0.50;99.90;;;;;;4206497;28;20086;-80
2020/12/08 04:40:17;;;;;;;95.43;33.58;;;-0.50;99.90;;;;;;4199336;28;20036;-81
2020/12/08 04:42:17;;;;;;;88.65;29.95;;;-0.60;99.90;;;;;;4197607;28;20048;-80
2020/12/08 04:44:18;;;;;;;96.13;31.17;;;-0.70;99.90;;;;;;4197823;28;20169;-80
2020/12/08 04:46:20;;;;;;;93.70;32.83;;;-0.80;99.90;;;;;;4199050;28;20025;-79
2020/12/08 04:48:21;;;;;;;91.47;32.63;;;-0.80;99.90;;;;;;4198626;28;20040;-81
2020/12/08 04:50:22;;;;;;;118.85;33.17;;;-0.80;99.90;;;;;;4198025;28;20603;-82
2020/12/08 04:52:22;;;;;;;121.57;35.03;;;-0.80;99.90;;;;;;4196101;28;20028;-81
2020/12/08 04:54:23;;;;;;;94.72;32.42;;;-0.90;99.90;;;;;;4197329;28;20051;-82
2020/12/08 04:56:24;;;;;;;86.68;32.65;;;-0.90;99.90;;;;;;4197438;28;20033;-79
2020/12/08 04:58:25;;;;;;;91.18;30.88;;;-1.00;99.90;;;;;;4194117;28;20036;-79
2020/12/08 05:00:25;;;;;;;103.43;33.45;;;-1.00;99.90;;;;;;4197495;28;20472;-80
2020/12/08 05:02:26;;;;;;;88.78;32.55;;;-1.00;99.90;;;;;;4197399;28;20047;-80
2020/12/08 05:04:27;;;;;;;82.25;29.80;;;-1.00;99.90;;;;;;4197304;28;20037;-79
2020/12/08 05:06:29;;;;;;;83.50;28.27;;;-1.10;99.90;;;;;;4212589;28;20115;-79
2020/12/08 05:08:29;;;;;;;69.97;28.00;;;-1.10;99.90;;;;;;4196484;28;20056;-80
2020/12/08 05:10:30;;;;;;;94.75;28.50;;;-1.20;99.90;;;;;;4181332;28;20172;-80
2020/12/08 05:12:31;;;;;;;68.88;26.67;;;-1.20;99.90;;;;;;4184728;28;20471;-80
2020/12/08 05:14:40;;;;;;;88.00;29.15;;;-1.20;99.90;;;;;;4197686;28;20043;-79
2020/12/08 05:16:41;;;;;;;83.28;28.00;;;-1.20;99.90;;;;;;4196613;28;20059;-79
2020/12/08 05:18:44;;;;;;;83.03;29.00;;;-1.20;99.90;;;;;;4198653;28;20037;-80
2020/12/08 05:20:45;;;;;;;86.70;28.88;;;-1.20;99.90;;;;;;4198693;28;20122;-80
2020/12/08 05:22:57;;;;;;;86.88;27.25;;;-1.20;99.90;;;;;;4196933;28;20025;-79
2020/12/08 05:25:17;;;;;;;69.25;26.58;;;-1.20;99.90;;;;;;4197381;28;20028;-79
2020/12/08 05:27:19;;;;;;;89.07;26.48;;;-1.30;99.90;;;;;;4195938;28;20387;-79
2020/12/08 05:29:20;;;;;;;75.78;27.27;;;-1.30;99.90;;;;;;4192503;28;20025;-80
2020/12/08 05:31:28;;;;;;;78.97;28.33;;;-1.30;99.90;;;;;;4198310;28;20545;-79
2020/12/08 05:33:29;;;;;;;88.70;25.98;;;-1.30;99.90;;;;;;4198651;28;20032;-80
2020/12/08 05:35:34;;;;;;;83.55;25.88;;;-1.40;99.90;;;;;;4201652;28;20036;-80
2020/12/08 05:37:36;;;;;;;84.32;29.30;;;-1.30;99.90;;;;;;4185746;28;20093;-79
2020/12/08 05:39:37;;;;;;;89.77;29.33;;;-1.30;99.90;;;;;;4189107;28;20033;-79
2020/12/08 05:41:43;;;;;;;76.53;29.73;;;-1.20;99.90;;;;;;4188269;28;20294;-80
2020/12/08 05:43:44;;;;;;;96.00;30.95;;;-1.10;99.90;;;;;;4188401;28;20112;-79
2020/12/08 05:45:48;;;;;;;79.75;29.95;;;-1.10;99.90;;;;;;4192817;28;20472;-80
2020/12/08 05:47:57;;;;;;;82.72;29.40;;;-1.10;99.90;;;;;;4198174;28;20056;-79
2020/12/08 05:50:00;;;;;;;91.28;31.88;;;-1.10;99.90;;;;;;4198133;28;20032;-79
2020/12/08 05:52:01;;;;;;;103.43;32.17;;;-1.10;99.90;;;;;;4197857;28;20469;-79
2020/12/08 05:54:02;;;;;;;84.60;30.88;;;-1.20;99.90;;;;;;4197724;28;20031;-79
2020/12/08 05:56:03;;;;;;;98.68;32.78;;;-1.30;99.90;;;;;;4195335;28;20044;-79
2020/12/08 05:58:06;;;;;;;106.30;34.45;;;-1.30;99.90;;;;;;4195835;28;20524;-79
2020/12/08 06:00:19;;;;;;;153.23;41.83;;;-1.40;99.90;;;;;;4194732;28;20020;-79
2020/12/08 06:02:29;;;;;;;98.93;32.33;;;-1.40;99.90;;;;;;4183661;28;20066;-80
2020/12/08 06:04:43;;;;;;;101.97;35.20;;;-1.40;99.90;;;;;;4189320;28;20036;-79
2020/12/08 06:06:56;;;;;;;88.88;32.25;;;-1.50;99.90;;;;;;4185303;28;20411;-80
2020/12/08 06:08:56;;;;;;;99.85;32.63;;;-1.50;99.90;;;;;;4189320;28;20577;-79
2020/12/08 06:10:57;;;;;;;124.22;35.83;;;-1.60;99.90;;;;;;4181287;28;20021;-79
2020/12/08 06:13:00;;;;;;;76.22;30.83;;;-1.60;99.90;;;;;;4180944;28;20043;-80
2020/12/08 06:15:00;;;;;;;84.95;31.85;;;-1.70;99.90;;;;;;4191889;28;20066;-80
2020/12/08 06:17:03;;;;;;;111.25;33.10;;;-1.70;99.90;;;;;;4188684;28;20133;-79
2020/12/08 06:19:04;;;;;;;96.10;31.95;;;-1.70;99.90;;;;;;4185348;28;20387;-80
2020/12/08 06:21:23;;;;;;;93.65;30.52;;;-1.70;99.90;;;;;;4194717;28;20038;-79
2020/12/08 06:23:24;;;;;;;91.07;30.48;;;-1.70;99.90;;;;;;4195754;28;20415;-80
2020/12/08 06:25:25;;;;;;;103.45;34.65;;;-1.70;99.90;;;;;;4192408;28;20033;-80
2020/12/08 06:27:26;;;;;;;97.75;35.40;;;-1.70;99.90;;;;;;4192720;28;20464;-80
2020/12/08 06:29:26;;;;;;;115.65;35.22;;;-1.70;99.90;;;;;;4197029;28;20082;-80
2020/12/08 06:31:27;;;;;;;93.35;33.33;;;-1.80;99.90;;;;;;4191897;28;20028;-79
2020/12/08 06:33:43;;;;;;;88.93;32.33;;;-1.80;99.90;;;;;;4180815;28;20476;-80
2020/12/08 06:35:44;;;;;;;95.97;31.58;;;-1.70;99.90;;;;;;4193574;28;20028;-80
2020/12/08 06:37:54;;;;;;;84.40;29.77;;;-1.70;99.90;;;;;;4196066;28;22000;-80
2020/12/08 06:40:05;;;;;;;88.93;32.08;;;-1.70;99.90;;;;;;4195852;28;20044;-80
2020/12/08 06:42:13;;;;;;;88.28;31.35;;;-1.60;99.90;;;;;;4186369;28;20064;-80
2020/12/08 06:44:20;;;;;;;101.55;31.98;;;-1.60;99.90;;;;;;4193662;28;20472;-80
2020/12/08 06:46:21;;;;;;;106.50;32.22;;;-1.60;99.90;;;;;;4195970;28;20024;-80
2020/12/08 06:48:21;;;;;;;92.28;30.02;;;-1.50;99.90;;;;;;4195161;28;20029;-80
2020/12/08 06:50:32;;;;;;;81.15;31.08;;;-1.40;99.90;;;;;;4195624;28;20040;-80
2020/12/08 06:52:34;;;;;;;117.28;35.50;;;-1.40;99.90;;;;;;4197108;28;20025;-80
2020/12/08 06:54:34;;;;;;;129.30;38.22;;;-1.20;99.90;;;;;;4195317;28;20058;-80
2020/12/08 06:56:35;;;;;;;126.72;37.40;;;-1.10;99.90;;;;;;4183384;28;20021;-80
2020/12/08 06:58:46;;;;;;;120.85;34.42;;;-1.00;99.90;;;;;;4183451;28;20028;-80
2020/12/08 07:00:46;;;;;;;93.38;34.55;;;-0.90;99.90;;;;;;4180259;28;20175;-80
2020/12/08 07:02:50;;;;;;;93.20;34.50;;;-0.70;99.90;;;;;;4184029;28;20032;-80
2020/12/08 07:04:51;;;;;;;97.70;36.10;;;-0.60;99.90;;;;;;4190191;28;20515;-80
2020/12/08 07:06:52;;;;;;;107.35;35.22;;;-0.50;99.90;;;;;;4187436;28;20028;-80
2020/12/08 07:08:54;;;;;;;117.10;37.42;;;-0.50;99.90;;;;;;4182084;28;20029;-80
2020/12/08 07:10:55;;;;;;;109.20;36.50;;;-0.40;99.90;;;;;;4189105;28;20112;-80
2020/12/08 07:12:56;;;;;;;88.35;35.15;;;-0.40;99.90;;;;;;4195520;28;20090;-81
2020/12/08 07:14:59;;;;;;;103.45;36.00;;;-0.40;99.90;;;;;;4192257;28;20120;-80
2020/12/08 07:17:00;;;;;;;;;;;-0.30;99.90;;;;;;4193770;28;20123;-80
2020/12/08 07:19:06;;;;;;;92.88;33.00;;;-0.30;99.90;;;;;;4195252;28;19909;-81
2020/12/08 07:21:06;;;;;;;98.63;36.03;;;-0.30;99.90;;;;;;4178862;28;20033;-79
2020/12/08 07:23:09;;;;;;;107.13;36.35;;;-0.30;99.90;;;;;;4194653;28;20182;-81
2020/12/08 07:25:12;;;;;;;104.10;35.97;;;-0.20;99.90;;;;;;4187615;28;20032;-80
2020/12/08 07:27:13;;;;;;;101.70;38.30;;;-0.10;99.90;;;;;;4195025;28;20078;-80
2020/12/08 07:29:14;;;;;;;106.85;39.47;;;-0.10;99.90;;;;;;4179880;28;20053;-81
2020/12/08 07:31:19;;;;;;;131.02;48.08;;;0.00;99.90;;;;;;4182797;28;20027;-80
2020/12/08 07:33:20;;;;;;;132.25;44.80;;;0.00;99.90;;;;;;4189866;28;20055;-81
2020/12/08 07:35:26;;;;;;;118.35;45.10;;;0.00;99.90;;;;;;4191185;28;20032;-80
2020/12/08 07:37:27;;;;;;;122.10;44.25;;;0.10;99.90;;;;;;4199504;28;20028;-81
2020/12/08 07:39:28;;;;;;;112.88;44.92;;;0.20;99.90;;;;;;4188229;28;20033;-81
2020/12/08 07:41:33;;;;;;;123.20;45.30;;;0.30;99.90;;;;;;4180512;28;20850;-81
2020/12/08 07:43:34;;;;;;;132.93;46.17;;;0.30;99.90;;;;;;4185628;28;20036;-81
2020/12/08 07:45:42;;;;;;;131.63;47.17;;;0.30;99.90;;;;;;4190048;28;20029;-81
2020/12/08 07:47:55;;;;;;;128.90;46.20;;;0.30;99.90;;;;;;4185062;28;20066;-81
2020/12/08 07:49:55;;;;;;;117.68;45.92;;;0.40;99.90;;;;;;4190738;28;20493;-82
2020/12/08 07:51:56;;;;;;;126.75;46.22;;;0.40;99.90;;;;;;4192284;28;20021;-81
2020/12/08 07:53:59;;;;;;;137.07;45.47;;;0.50;99.90;;;;;;4194202;28;20027;-82
2020/12/08 07:56:00;;;;;;;142.20;49.63;;;0.40;99.90;;;;;;4185174;28;20021;-82
2020/12/08 07:58:01;;;;;;;120.47;45.45;;;0.50;99.90;;;;;;4184404;28;20090;-80
2020/12/08 08:00:01;;;;;;;123.70;47.20;;;0.50;99.90;;;;;;4190428;28;20052;-81
2020/12/08 08:02:02;;;;;;;109.57;45.15;;;0.50;99.90;;;;;;4195621;28;20103;-81
2020/12/08 08:04:02;;;;;;;130.48;47.15;;;0.50;99.90;;;;;;4179203;28;20025;-81
2020/12/08 08:06:03;;;;;;;127.53;48.38;;;0.60;99.90;;;;;;4182346;28;20116;-81
2020/12/08 08:08:04;;;;;;;131.30;49.75;;;0.60;99.90;;;;;;4192779;28;20549;-81
2020/12/08 08:10:04;;;;;;;151.40;53.30;;;0.60;99.90;;;;;;4194508;28;20052;-81
2020/12/08 08:12:05;;;;;;;139.27;49.80;;;0.60;99.90;;;;;;4184776;28;20112;-81
2020/12/08 08:14:06;;;;;;;140.90;52.33;;;0.70;99.90;;;;;;4187370;28;20070;-81
2020/12/08 08:16:10;;;;;;;148.50;49.42;;;0.70;99.90;;;;;;4195418;28;20029;-81
2020/12/08 08:18:11;;;;;;;145.80;50.58;;;0.80;99.90;;;;;;4187957;28;20112;-81
2020/12/08 08:20:11;;;;;;;121.55;48.92;;;0.80;99.90;;;;;;4193236;28;20040;-81
2020/12/08 08:22:12;;;;;;;161.82;53.60;;;0.80;99.90;;;;;;4184689;28;20029;-82
2020/12/08 08:24:12;;;;;;;135.63;48.53;;;0.80;99.90;;;;;;4189341;28;20032;-81
2020/12/08 08:26:14;;;;;;;124.13;47.55;;;0.80;99.90;;;;;;4190405;28;20456;-82
2020/12/08 08:28:15;;;;;;;133.57;50.90;;;0.90;99.90;;;;;;4184522;28;20059;-81
2020/12/08 08:30:16;;;;;;;123.45;50.05;;;0.90;99.90;;;;;;4186170;28;20017;-82
2020/12/08 08:32:17;;;;;;;130.65;50.13;;;0.90;99.90;;;;;;4202165;28;20418;-82
2020/12/08 08:34:18;;;;;;;144.73;52.13;;;0.90;99.90;;;;;;4181245;28;20036;-81
2020/12/08 08:36:18;;;;;;;143.60;53.90;;;1.00;99.90;;;;;;4209292;28;20036;-81
2020/12/08 08:38:21;;;;;;;128.07;50.15;;;1.00;99.90;;;;;;4186026;28;20037;-82
2020/12/08 08:40:22;;;;;;;137.98;52.05;;;1.10;99.90;;;;;;4186827;28;20033;-81
2020/12/08 08:42:22;;;;;;;134.85;50.75;;;1.10;99.90;;;;;;4179464;28;20122;-82
2020/12/08 08:44:23;;;;;;;130.25;50.13;;;1.10;99.90;;;;;;4183931;28;20029;-82
2020/12/08 08:46:24;;;;;;;140.40;53.20;;;1.10;99.90;;;;;;4194010;28;20387;-81
2020/12/08 08:48:24;;;;;;;123.30;50.20;;;1.10;99.90;;;;;;4177989;28;20487;-81
2020/12/08 08:50:25;;;;;;;132.40;52.60;;;1.10;99.90;;;;;;4181244;28;20029;-81
2020/12/08 08:52:26;;;;;;;152.93;54.67;;;1.10;99.90;;;;;;4189064;28;20033;-81
2020/12/08 08:54:26;;;;;;;132.13;52.42;;;1.20;99.90;;;;;;4181796;28;20037;-81
2020/12/08 08:56:27;;;;;;;137.35;50.85;;;1.20;99.90;;;;;;4190937;28;20072;-81
2020/12/08 08:58:28;;;;;;;139.52;52.50;;;1.20;99.90;;;;;;4187611;28;20041;-82
2020/12/08 09:00:28;;;;;;;192.93;58.65;;;1.30;99.90;;;;;;4182807;28;20502;-81
2020/12/08 09:02:29;;;;;;;153.23;53.58;;;1.30;99.90;;;;;;4178696;28;20035;-81
2020/12/08 09:04:30;;;;;;;159.85;57.63;;;1.40;99.90;;;;;;4189425;28;20029;-82
2020/12/08 09:06:31;;;;;;;149.75;55.60;;;1.40;99.90;;;;;;4175955;28;20029;-81
2020/12/08 09:08:31;;;;;;;157.20;55.90;;;1.50;99.90;;;;;;4181404;28;20063;-81
2020/12/08 09:10:32;;;;;;;141.60;54.25;;;1.50;99.90;;;;;;4193433;28;20055;-80
2020/12/08 09:12:32;;;;;;;170.60;57.00;;;1.60;99.90;;;;;;4191516;28;20028;-81
2020/12/08 09:14:33;;;;;;;122.85;49.25;;;1.60;99.90;;;;;;4196158;28;20086;-81
2020/12/08 09:16:34;;;;;;;162.23;59.65;;;1.70;99.90;;;;;;4196379;28;20442;-81
2020/12/08 09:18:34;;;;;;;161.95;56.13;;;1.70;99.90;;;;;;4188389;28;20051;-81
2020/12/08 09:20:35;;;;;;;166.05;55.05;;;1.70;99.90;;;;;;4192519;28;20033;-81
2020/12/08 09:22:36;;;;;;;162.10;56.97;;;1.80;99.90;;;;;;4185606;28;20132;-81
2020/12/08 09:24:37;;;;;;;121.30;50.65;;;1.80;99.90;;;;;;4194356;28;20112;-81
2020/12/08 09:26:40;;;;;;;151.98;54.30;;;1.90;99.90;;;;;;4195027;28;20033;-81
2020/12/08 09:28:42;;;;;;;;;;;1.90;99.90;;;;;;4187462;28;20466;-81
2020/12/08 09:30:44;;;;;;;138.30;51.85;;;1.90;99.90;;;;;;4194440;28;20383;-81
2020/12/08 09:32:44;;;;;;;165.07;57.55;;;1.90;99.90;;;;;;4181681;28;20112;-82
2020/12/08 09:34:45;;;;;;;158.85;57.92;;;2.00;99.90;;;;;;4190833;28;20326;-81
2020/12/08 09:36:51;;;;;;;156.57;55.75;;;2.10;99.90;;;;;;4185321;28;20056;-81
2020/12/08 09:38:52;;;;;;;168.88;58.83;;;2.10;99.90;;;;;;4192046;28;20572;-82
2020/12/08 09:40:52;;;;;;;159.82;56.05;;;2.10;99.90;;;;;;4196076;28;20044;-82
2020/12/08 09:42:53;;;;;;;142.75;56.05;;;2.20;99.90;;;;;;4190270;28;20033;-82
2020/12/08 09:44:53;;;;;;;137.45;55.42;;;2.20;99.90;;;;;;4197332;28;20048;-82
2020/12/08 09:46:55;;;;;;;150.77;57.20;;;2.20;99.90;;;;;;4192053;28;20104;-82
2020/12/08 09:48:55;;;;;;;143.25;52.80;;;2.20;99.90;;;;;;4207054;28;20115;-82
2020/12/08 09:50:56;;;;;;;143.35;54.03;;;2.20;99.90;;;;;;4199788;28;20127;-82
2020/12/08 09:52:57;;;;;;;149.20;55.95;;;2.20;99.90;;;;;;4197702;28;20468;-81
2020/12/08 09:54:58;;;;;;;143.43;55.13;;;2.10;99.90;;;;;;4212655;28;20536;-82
2020/12/08 09:56:59;;;;;;;149.98;54.80;;;2.20;99.90;;;;;;4183018;28;20032;-82
2020/12/08 09:59:00;;;;;;;127.97;54.28;;;2.10;99.90;;;;;;4205062;28;20136;-81
2020/12/08 10:01:00;;;;;;;115.22;50.15;;;2.20;99.90;;;;;;4193268;28;20513;-81
2020/12/08 10:03:01;;;;;;;144.98;54.67;;;2.20;99.90;;;;;;4186731;28;20119;-80
2020/12/08 10:05:03;;;;;;;146.02;56.63;;;2.30;99.90;;;;;;4206195;28;20055;-79
2020/12/08 10:07:03;;;;;;;138.20;57.28;;;2.30;99.90;;;;;;4193615;28;20025;-80
2020/12/08 10:09:04;;;;;;;138.00;58.83;;;2.40;99.90;;;;;;4184014;28;20041;-80
2020/12/08 10:11:07;;;;;;;146.88;61.92;;;2.50;99.90;;;;;;4197492;28;20037;-80
2020/12/08 10:13:08;;;;;;;;;;;2.60;99.90;;;;;;4203107;28;20052;-81
2020/12/08 10:15:09;;;;;;;143.60;58.78;;;2.60;99.90;;;;;;4209061;28;19919;-81
2020/12/08 10:17:11;;;;;;;145.73;59.58;;;2.70;99.90;;;;;;4193459;28;20123;-81
2020/12/08 10:19:11;;;;;;;149.88;63.30;;;2.80;99.90;;;;;;4191662;28;20033;-81
2020/12/08 10:21:12;;;;;;;165.52;66.35;;;2.80;99.90;;;;;;4202285;28;20044;-81